Time;durP1;ratioP1;P1;durP2;ratioP2;P2;SDS_P1;SDS_P2;PMS_P1;PMS_P2;Temp;Humidity;BMP_temperature;BMP_pressure;BME280_temperature;BME280_humidity;BME280_pressure;Samples;Min_cycle;Max_cycle;Signal;HPM_P1;HPM_P2
2021/04/07 00:00:47;;;;;;;7.63;4.60;;;0.80;92.50;;;;;;4995612;28;20018;-54
2021/04/07 00:03:13;;;;;;;6.30;4.25;;;0.80;92.40;;;;;;4995575;28;20033;-56
2021/04/07 00:05:41;;;;;;;8.55;4.40;;;0.80;92.60;;;;;;5026765;28;20022;-52
2021/04/07 00:08:07;;;;;;;5.00;4.15;;;0.90;92.30;;;;;;5008270;28;20043;-58
2021/04/07 00:10:39;;;;;;;6.05;4.40;;;0.80;92.40;;;;;;5012807;28;20049;-59
2021/04/07 00:13:06;;;;;;;7.00;5.35;;;0.70;92.50;;;;;;5011862;28;20108;-59
2021/04/07 00:15:32;;;;;;;8.60;4.25;;;0.80;92.40;;;;;;5016243;28;20045;-55
2021/04/07 00:17:58;;;;;;;7.70;4.60;;;0.90;92.10;;;;;;5019446;28;20046;-56
2021/04/07 00:20:26;;;;;;;11.60;5.15;;;0.90;91.80;;;;;;5007992;28;20033;-53
2021/04/07 00:22:52;;;;;;;8.38;5.32;;;1.10;91.50;;;;;;5010974;28;20034;-58
2021/04/07 00:25:19;;;;;;;12.15;6.47;;;0.90;91.70;;;;;;5012712;28;20041;-57
2021/04/07 00:27:52;;;;;;;10.05;5.63;;;0.90;91.70;;;;;;5012697;28;20064;-55
2021/04/07 00:30:19;;;;;;;8.52;5.45;;;1.00;91.60;;;;;;5008745;28;20137;-57
2021/04/07 00:32:45;;;;;;;10.00;6.72;;;1.00;91.50;;;;;;5029650;28;20021;-52
2021/04/07 00:35:11;;;;;;;13.13;5.47;;;1.10;91.30;;;;;;5016074;28;20044;-57
2021/04/07 00:37:37;;;;;;;11.18;5.50;;;1.20;91.20;;;;;;5014931;28;20045;-58
2021/04/07 00:40:04;;;;;;;10.13;5.03;;;1.20;91.20;;;;;;5011434;28;20501;-59
2021/04/07 00:42:32;;;;;;;8.30;6.15;;;1.10;91.40;;;;;;5014618;28;20489;-54
2021/04/07 00:44:59;;;;;;;9.23;5.10;;;1.10;91.20;;;;;;5014907;28;20121;-55
2021/04/07 00:47:24;;;;;;;8.48;5.18;;;1.30;91.00;;;;;;5014775;28;20546;-56
2021/04/07 00:49:50;;;;;;;9.63;5.00;;;1.30;90.70;;;;;;5014320;28;20038;-58
2021/04/07 00:52:16;;;;;;;8.68;5.30;;;1.20;90.60;;;;;;5006322;28;20045;-60
2021/04/07 00:54:42;;;;;;;7.40;4.93;;;1.20;91.00;;;;;;5015060;28;20018;-56
2021/04/07 00:57:08;;;;;;;8.30;5.20;;;1.20;90.90;;;;;;5019322;28;20057;-50
2021/04/07 00:59:34;;;;;;;9.57;5.40;;;1.20;90.60;;;;;;5013466;28;20386;-53
2021/04/07 01:02:00;;;;;;;10.80;5.28;;;1.10;90.90;;;;;;5015157;28;20042;-55
2021/04/07 01:04:25;;;;;;;10.52;5.38;;;1.10;90.90;;;;;;5015612;28;20037;-56
2021/04/07 01:06:52;;;;;;;9.23;5.47;;;1.10;90.70;;;;;;5015169;28;20061;-58
2021/04/07 01:09:18;;;;;;;9.45;5.30;;;1.10;90.90;;;;;;5015064;28;20110;-56
2021/04/07 01:11:44;;;;;;;9.10;4.80;;;1.20;90.60;;;;;;5015912;28;20552;-54
2021/04/07 01:14:10;;;;;;;9.57;5.00;;;1.20;90.70;;;;;;5015594;28;20048;-58
2021/04/07 01:16:36;;;;;;;12.63;5.78;;;1.20;90.80;;;;;;5027544;28;20117;-58
2021/04/07 01:19:02;;;;;;;6.65;4.65;;;1.20;90.70;;;;;;5018364;28;20092;-53
2021/04/07 01:21:28;;;;;;;10.05;5.88;;;1.30;90.40;;;;;;5014599;28;20053;-52
2021/04/07 01:23:53;;;;;;;9.35;5.88;;;1.30;90.30;;;;;;5018890;28;20046;-56
2021/04/07 01:26:19;;;;;;;13.38;6.13;;;1.20;90.60;;;;;;5023306;28;20048;-54
2021/04/07 01:28:45;;;;;;;11.82;6.25;;;1.30;90.50;;;;;;5019765;28;20034;-59
2021/04/07 01:31:11;;;;;;;9.05;5.30;;;1.40;90.50;;;;;;5018178;28;20060;-58
2021/04/07 01:33:37;;;;;;;11.65;6.13;;;1.40;90.30;;;;;;5022404;28;20414;-58
2021/04/07 01:36:03;;;;;;;8.23;5.85;;;1.30;90.50;;;;;;5022359;28;20041;-56
2021/04/07 01:38:28;;;;;;;9.20;5.20;;;1.30;90.50;;;;;;5029661;28;20034;-51
2021/04/07 01:40:55;;;;;;;10.80;5.60;;;1.40;90.40;;;;;;5015594;28;20117;-56
2021/04/07 01:43:22;;;;;;;7.95;5.40;;;1.50;90.30;;;;;;5024679;28;20393;-56
2021/04/07 01:45:49;;;;;;;8.60;5.28;;;1.50;90.20;;;;;;5016046;28;20038;-57
2021/04/07 01:48:17;;;;;;;10.35;5.40;;;1.50;90.10;;;;;;5025312;28;20070;-57
2021/04/07 01:50:45;;;;;;;7.93;5.03;;;1.50;90.00;;;;;;5015626;28;20113;-57
2021/04/07 01:53:12;;;;;;;7.85;5.78;;;1.40;90.30;;;;;;5014561;28;20103;-57
2021/04/07 01:55:37;;;;;;;10.20;5.68;;;1.20;90.60;;;;;;5015962;28;20069;-55
2021/04/07 01:58:03;;;;;;;9.65;5.78;;;1.30;90.70;;;;;;5014025;28;20058;-53
2021/04/07 02:00:29;;;;;;;9.07;6.13;;;1.40;90.70;;;;;;5014483;28;20125;-56
2021/04/07 02:02:55;;;;;;;11.20;6.50;;;1.40;90.60;;;;;;5014020;28;20553;-55
2021/04/07 02:05:20;;;;;;;9.20;5.80;;;1.40;90.40;;;;;;5018800;28;20029;-58
2021/04/07 02:07:46;;;;;;;9.90;6.05;;;1.40;90.50;;;;;;5017515;28;20411;-55
2021/04/07 02:10:12;;;;;;;10.15;6.60;;;1.40;90.50;;;;;;5022502;28;20116;-57
2021/04/07 02:12:38;;;;;;;7.65;6.10;;;1.40;90.50;;;;;;5013774;28;20033;-56
2021/04/07 02:15:25;;;;;;;9.30;6.25;;;1.30;90.70;;;;;;5021337;28;20038;-54
2021/04/07 02:17:51;;;;;;;9.68;6.50;;;1.30;90.90;;;;;;5021774;28;20041;-53
2021/04/07 02:20:17;;;;;;;8.63;6.40;;;1.20;91.00;;;;;;5021229;28;20033;-56
2021/04/07 02:22:44;;;;;;;10.45;6.78;;;1.30;91.20;;;;;;5014198;28;20034;-54
2021/04/07 02:25:11;;;;;;;9.82;6.50;;;1.20;91.20;;;;;;5022168;28;20037;-55
2021/04/07 02:27:38;;;;;;;11.63;6.78;;;1.20;91.00;;;;;;5022312;28;20080;-57
2021/04/07 02:30:09;;;;;;;12.55;7.22;;;1.30;91.30;;;;;;5017669;28;20117;-57
2021/04/07 02:32:35;;;;;;;12.43;7.15;;;1.20;91.30;;;;;;5017664;28;20046;-53
2021/04/07 02:35:01;;;;;;;10.88;7.38;;;1.10;91.40;;;;;;5012498;28;20030;-52
2021/04/07 02:37:27;;;;;;;13.90;6.82;;;1.10;91.50;;;;;;5019356;28;20037;-57
2021/04/07 02:39:52;;;;;;;10.25;7.00;;;1.30;91.40;;;;;;4999164;28;20030;-54
2021/04/07 02:42:21;;;;;;;11.65;7.00;;;1.20;91.30;;;;;;5019811;28;20136;-52
2021/04/07 02:44:46;;;;;;;11.80;6.25;;;1.30;91.30;;;;;;5020187;28;20096;-54
2021/04/07 02:47:12;;;;;;;10.57;6.55;;;1.20;91.40;;;;;;5031119;28;20121;-53
2021/04/07 02:49:38;;;;;;;11.88;7.10;;;1.20;91.60;;;;;;5017542;28;20037;-55
2021/04/07 02:52:04;;;;;;;10.18;6.93;;;1.20;91.60;;;;;;5020981;28;20129;-52
2021/04/07 02:54:30;;;;;;;12.15;6.47;;;1.30;91.50;;;;;;5016606;28;20101;-53
2021/04/07 02:56:56;;;;;;;10.93;6.15;;;1.20;91.50;;;;;;5026837;28;20054;-55
2021/04/07 02:59:22;;;;;;;9.27;5.80;;;1.20;91.60;;;;;;5016390;28;20519;-55
2021/04/07 03:01:48;;;;;;;10.23;6.28;;;1.30;91.40;;;;;;5023832;28;20129;-53
2021/04/07 03:04:14;;;;;;;10.07;6.13;;;1.30;91.70;;;;;;5015457;28;20113;-52
2021/04/07 03:06:40;;;;;;;10.32;6.03;;;1.30;91.20;;;;;;5021883;28;20037;-55
2021/04/07 03:09:06;;;;;;;7.35;5.63;;;1.30;91.50;;;;;;5013563;28;20173;-59
2021/04/07 03:11:33;;;;;;;10.15;6.53;;;1.30;91.40;;;;;;5008290;28;20072;-52
2021/04/07 03:13:59;;;;;;;10.35;6.55;;;1.40;91.50;;;;;;5014878;28;20030;-52
2021/04/07 03:16:25;;;;;;;9.20;6.20;;;1.40;91.50;;;;;;5018675;28;20041;-54
2021/04/07 03:18:50;;;;;;;12.05;6.28;;;1.40;91.60;;;;;;5013834;28;20053;-54
2021/04/07 03:21:16;;;;;;;10.85;5.95;;;1.30;91.90;;;;;;4998421;28;20037;-54
2021/04/07 03:23:41;;;;;;;10.32;5.68;;;1.30;92.00;;;;;;5020697;28;20400;-54
2021/04/07 03:26:07;;;;;;;9.85;6.80;;;1.40;91.50;;;;;;5015741;28;20045;-55
2021/04/07 03:28:33;;;;;;;10.88;5.55;;;1.30;91.90;;;;;;5013380;28;20046;-54
2021/04/07 03:30:59;;;;;;;8.27;5.63;;;1.30;91.50;;;;;;5018063;28;20044;-56
2021/04/07 03:33:28;;;;;;;9.00;5.75;;;1.30;91.90;;;;;;5020620;28;20062;-58
2021/04/07 03:35:55;;;;;;;7.88;5.30;;;1.40;91.20;;;;;;5015428;28;20042;-55
2021/04/07 03:38:21;;;;;;;8.93;6.18;;;1.50;91.30;;;;;;5004964;28;20110;-56
2021/04/07 03:40:47;;;;;;;9.07;5.25;;;1.40;91.30;;;;;;5019428;28;20061;-59
2021/04/07 03:43:15;;;;;;;6.80;5.45;;;1.40;91.10;;;;;;5012676;28;20533;-57
2021/04/07 03:45:49;;;;;;;10.93;6.00;;;1.40;91.10;;;;;;5021687;28;20535;-56
2021/04/07 03:48:20;;;;;;;9.40;5.65;;;1.40;91.40;;;;;;5022716;28;20042;-55
2021/04/07 03:50:47;;;;;;;7.95;6.00;;;1.20;91.70;;;;;;5021797;28;20053;-55
2021/04/07 03:53:14;;;;;;;11.55;6.00;;;1.40;91.50;;;;;;5011598;28;20381;-56
2021/04/07 03:55:40;;;;;;;7.70;5.72;;;1.50;91.30;;;;;;5018807;28;20065;-54
2021/04/07 03:58:06;;;;;;;7.85;5.95;;;1.60;91.20;;;;;;5014194;28;20041;-57
2021/04/07 04:00:32;;;;;;;7.95;6.38;;;1.40;91.50;;;;;;5012085;28;20078;-53
2021/04/07 04:02:58;;;;;;;10.48;6.45;;;1.40;91.50;;;;;;5012282;28;20030;-58
2021/04/07 04:05:24;;;;;;;9.35;6.05;;;1.30;91.80;;;;;;5014228;28;20033;-59
2021/04/07 04:07:50;;;;;;;9.75;7.07;;;1.20;91.90;;;;;;5015249;28;20045;-54
2021/04/07 04:10:16;;;;;;;10.13;6.30;;;1.30;91.80;;;;;;5012638;28;20037;-54
2021/04/07 04:12:42;;;;;;;9.00;7.03;;;1.50;91.40;;;;;;5012615;28;20037;-54
2021/04/07 04:15:09;;;;;;;11.40;6.38;;;1.40;91.50;;;;;;5013468;28;20056;-56
2021/04/07 04:17:36;;;;;;;9.88;6.38;;;1.30;91.50;;;;;;5016519;28;20033;-60
2021/04/07 04:20:03;;;;;;;9.48;6.35;;;1.40;91.50;;;;;;5014964;28;20026;-55
2021/04/07 04:22:28;;;;;;;10.35;7.00;;;1.50;91.50;;;;;;5015087;28;20572;-57
2021/04/07 04:24:54;;;;;;;10.52;6.43;;;1.50;91.30;;;;;;5012526;28;20206;-56
2021/04/07 04:27:19;;;;;;;9.73;6.40;;;1.40;91.50;;;;;;5012159;28;20105;-51
2021/04/07 04:29:45;;;;;;;9.60;6.97;;;1.30;91.70;;;;;;5014404;28;20429;-55
2021/04/07 04:32:10;;;;;;;8.48;6.95;;;1.30;91.70;;;;;;5018656;28;20034;-57
2021/04/07 04:34:36;;;;;;;9.40;6.97;;;1.20;92.00;;;;;;5018894;28;20037;-55
2021/04/07 04:37:02;;;;;;;9.52;6.43;;;1.10;92.10;;;;;;5019523;28;20046;-53
2021/04/07 04:39:27;;;;;;;11.45;8.05;;;1.20;92.10;;;;;;5011896;28;20030;-55
2021/04/07 04:41:53;;;;;;;8.15;6.90;;;1.10;91.80;;;;;;5017353;28;20145;-55
2021/04/07 04:44:18;;;;;;;11.02;6.97;;;1.10;92.00;;;;;;5013831;28;20041;-55
2021/04/07 04:46:44;;;;;;;8.65;6.50;;;1.20;91.60;;;;;;5016219;28;20048;-56
2021/04/07 04:49:10;;;;;;;7.57;6.20;;;1.30;91.60;;;;;;5015117;28;20042;-56
2021/04/07 04:51:35;;;;;;;10.48;6.70;;;1.30;91.20;;;;;;5011331;28;20448;-55
2021/04/07 04:54:01;;;;;;;12.48;6.43;;;1.30;91.10;;;;;;5007545;28;20394;-55
2021/04/07 04:56:26;;;;;;;13.82;6.28;;;1.20;91.20;;;;;;5013347;28;20056;-56
2021/04/07 04:58:52;;;;;;;8.43;6.85;;;1.40;90.90;;;;;;5011353;28;20054;-55
2021/04/07 05:01:17;;;;;;;7.72;5.55;;;1.30;91.00;;;;;;5014319;28;20026;-56
2021/04/07 05:03:43;;;;;;;10.27;5.85;;;1.30;90.90;;;;;;5011763;28;20040;-56
2021/04/07 05:06:09;;;;;;;11.82;6.47;;;1.20;90.70;;;;;;5013110;28;20496;-53
2021/04/07 05:08:34;;;;;;;9.68;6.28;;;1.10;91.10;;;;;;5011936;28;20506;-56
2021/04/07 05:11:00;;;;;;;7.82;6.43;;;1.20;91.10;;;;;;5011547;28;20402;-57
2021/04/07 05:13:25;;;;;;;8.57;5.93;;;1.20;91.00;;;;;;5014887;28;20050;-56
2021/04/07 05:15:51;;;;;;;10.45;6.60;;;1.10;91.30;;;;;;5020576;28;20038;-57
2021/04/07 05:18:18;;;;;;;12.90;6.65;;;1.10;91.50;;;;;;5014439;28;20532;-52
2021/04/07 05:20:43;;;;;;;7.68;5.15;;;1.10;91.50;;;;;;5018753;28;20037;-57
2021/04/07 05:23:10;;;;;;;7.70;5.55;;;1.10;91.50;;;;;;5020605;28;20121;-54
2021/04/07 05:25:36;;;;;;;10.00;6.43;;;1.20;91.30;;;;;;5019193;28;20071;-58
2021/04/07 05:28:06;;;;;;;7.20;5.70;;;1.30;91.00;;;;;;5013552;28;20049;-58
2021/04/07 05:33:18;;;;;;;;;;;1.20;91.20;;;;;;5022508;28;20029;-54
2021/04/07 05:35:43;;;;;;;8.90;6.13;;;1.30;91.20;;;;;;5025568;28;20055;-58
2021/04/07 05:38:09;;;;;;;8.30;5.25;;;1.30;91.00;;;;;;5014396;28;20578;-57
2021/04/07 05:40:34;;;;;;;7.28;5.50;;;1.40;90.80;;;;;;5019379;28;20045;-57
2021/04/07 05:43:04;;;;;;;8.27;5.60;;;1.40;90.80;;;;;;5024768;28;20091;-60
2021/04/07 05:45:30;;;;;;;11.63;5.93;;;1.60;90.40;;;;;;5028630;28;20036;-56
2021/04/07 05:47:56;;;;;;;8.93;5.85;;;1.60;90.40;;;;;;5025916;28;20045;-57
2021/04/07 05:50:22;;;;;;;9.20;5.18;;;1.50;90.40;;;;;;5021824;28;20030;-58
2021/04/07 05:52:51;;;;;;;8.48;5.47;;;1.70;90.10;;;;;;5016509;28;20530;-52
2021/04/07 05:55:18;;;;;;;13.15;5.93;;;1.70;89.80;;;;;;5014026;28;20551;-54
2021/04/07 05:57:43;;;;;;;12.23;6.25;;;1.60;90.00;;;;;;5017798;28;20108;-56
2021/04/07 06:00:10;;;;;;;11.43;5.15;;;1.60;90.00;;;;;;5019969;28;20157;-56
2021/04/07 06:02:36;;;;;;;9.27;4.90;;;1.60;89.40;;;;;;5018801;28;20046;-56
2021/04/07 06:05:02;;;;;;;10.35;5.35;;;1.70;89.30;;;;;;5004015;28;20030;-55
2021/04/07 06:07:27;;;;;;;10.73;5.57;;;1.60;89.40;;;;;;5013867;28;20034;-56
2021/04/07 06:09:53;;;;;;;7.55;5.07;;;1.70;88.80;;;;;;5023936;28;20029;-53
2021/04/07 06:12:18;;;;;;;7.45;4.90;;;1.70;88.70;;;;;;5021575;28;20045;-58
2021/04/07 06:14:44;;;;;;;13.77;6.05;;;1.80;88.00;;;;;;5018539;28;20446;-56
2021/04/07 06:17:09;;;;;;;12.45;5.57;;;1.90;88.00;;;;;;5014513;28;20030;-55
2021/04/07 06:19:35;;;;;;;8.68;5.57;;;1.90;88.20;;;;;;5020860;28;20044;-54
2021/04/07 06:22:00;;;;;;;10.68;5.60;;;1.90;88.70;;;;;;5022483;28;20077;-56
2021/04/07 06:24:26;;;;;;;11.45;5.97;;;1.80;88.50;;;;;;5014439;28;20930;-53
2021/04/07 06:26:51;;;;;;;12.77;6.25;;;1.80;89.00;;;;;;5012951;28;20069;-57
2021/04/07 06:29:17;;;;;;;11.13;5.68;;;1.90;88.50;;;;;;5015743;28;20041;-56
2021/04/07 06:31:43;;;;;;;12.88;5.47;;;2.00;87.30;;;;;;5018521;28;20033;-57
2021/04/07 06:34:09;;;;;;;13.15;5.95;;;2.00;86.90;;;;;;5029664;28;20099;-58
2021/04/07 06:36:35;;;;;;;15.23;5.97;;;2.10;86.80;;;;;;5021995;28;20041;-55
2021/04/07 06:39:01;;;;;;;10.80;5.68;;;2.10;85.70;;;;;;5025051;28;20038;-54
2021/04/07 06:41:26;;;;;;;8.18;4.82;;;2.10;86.10;;;;;;5019917;28;20034;-54
2021/04/07 06:43:54;;;;;;;12.93;5.72;;;2.10;85.70;;;;;;5014004;28;20037;-54
2021/04/07 06:46:20;;;;;;;12.75;6.75;;;2.20;85.10;;;;;;5014398;28;20030;-54
2021/04/07 06:48:47;;;;;;;15.88;4.95;;;2.40;83.10;;;;;;5013602;28;20077;-55
2021/04/07 06:51:18;;;;;;;14.05;5.25;;;2.30;82.60;;;;;;5016637;28;20076;-54
2021/04/07 06:53:50;;;;;;;11.48;5.05;;;2.40;81.80;;;;;;5018179;28;20516;-56
2021/04/07 06:56:16;;;;;;;12.35;4.78;;;2.30;81.80;;;;;;5020530;28;20129;-58
2021/04/07 06:58:42;;;;;;;9.57;4.40;;;2.30;81.60;;;;;;5023445;28;20060;-59
2021/04/07 07:01:07;;;;;;;9.70;4.18;;;2.30;81.60;;;;;;5023529;28;20049;-56
2021/04/07 07:03:33;;;;;;;9.98;5.03;;;2.20;81.00;;;;;;5014787;28;20037;-55
2021/04/07 07:05:59;;;;;;;9.27;4.25;;;2.20;80.70;;;;;;5021207;28;20064;-51
2021/04/07 07:08:24;;;;;;;9.82;4.07;;;2.20;81.20;;;;;;5016086;28;20037;-55
2021/04/07 07:10:52;;;;;;;9.60;4.15;;;2.20;79.70;;;;;;5014709;28;20537;-58
2021/04/07 07:13:26;;;;;;;8.27;4.05;;;2.20;79.70;;;;;;5013929;28;20030;-54
2021/04/07 07:15:53;;;;;;;9.57;3.83;;;2.20;79.70;;;;;;5015437;28;20048;-57
2021/04/07 07:18:20;;;;;;;10.85;3.97;;;2.30;80.40;;;;;;5013723;28;20064;-56
2021/04/07 07:20:46;;;;;;;8.13;3.30;;;2.40;79.70;;;;;;5005387;28;20436;-56
2021/04/07 07:23:23;;;;;;;7.28;3.70;;;2.30;79.00;;;;;;5016986;28;20065;-61
2021/04/07 07:26:03;;;;;;;16.40;4.53;;;2.60;79.20;;;;;;5022339;28;20112;-57
2021/04/07 07:28:41;;;;;;;19.63;5.03;;;2.60;77.30;;;;;;5015594;28;20045;-55
2021/04/07 07:31:24;;;;;;;8.27;3.80;;;2.60;77.30;;;;;;5018126;28;20402;-57
2021/04/07 07:33:53;;;;;;;12.68;3.75;;;2.50;77.10;;;;;;5026215;28;20022;-57
2021/04/07 07:36:20;;;;;;;12.38;4.75;;;2.50;76.20;;;;;;5014220;28;20045;-57
2021/04/07 07:38:51;;;;;;;12.57;4.22;;;2.40;75.90;;;;;;5011820;28;20034;-54
2021/04/07 07:41:35;;;;;;;11.18;3.60;;;2.40;76.80;;;;;;5015023;28;20405;-57
2021/04/07 07:44:01;;;;;;;10.30;3.63;;;2.60;76.30;;;;;;5017696;28;20030;-53
2021/04/07 07:46:27;;;;;;;10.75;4.40;;;2.70;74.50;;;;;;5020359;28;20034;-52
2021/04/07 07:48:53;;;;;;;13.38;4.07;;;2.70;74.90;;;;;;5011522;28;20125;-58
2021/04/07 07:51:21;;;;;;;11.27;3.47;;;2.80;75.40;;;;;;5014303;28;20037;-58
2021/04/07 07:53:49;;;;;;;17.00;4.18;;;2.90;75.80;;;;;;5024547;28;20524;-57
2021/04/07 07:56:16;;;;;;;8.95;3.70;;;2.90;72.90;;;;;;5032827;28;20034;-56
2021/04/07 07:58:46;;;;;;;9.10;4.35;;;2.90;73.80;;;;;;5020375;28;20036;-59
2021/04/07 08:01:14;;;;;;;14.65;3.95;;;2.90;74.50;;;;;;5013914;28;20038;-55
2021/04/07 08:03:44;;;;;;;8.90;3.55;;;3.00;73.70;;;;;;5021635;28;20041;-55
2021/04/07 08:06:11;;;;;;;9.07;3.95;;;3.20;74.40;;;;;;5014410;28;20040;-58
2021/04/07 08:08:37;;;;;;;13.68;4.13;;;3.00;72.50;;;;;;5021024;28;20107;-56
2021/04/07 08:11:04;;;;;;;14.65;4.13;;;2.90;72.60;;;;;;5013339;28;20026;-59
2021/04/07 08:13:43;;;;;;;9.02;3.63;;;2.80;73.40;;;;;;5020674;28;20064;-56
2021/04/07 08:16:12;;;;;;;12.65;3.97;;;3.00;74.00;;;;;;5011591;28;20039;-54
2021/04/07 08:18:38;;;;;;;13.00;3.90;;;3.60;73.60;;;;;;5016259;28;20508;-57
2021/04/07 08:21:04;;;;;;;8.05;3.38;;;4.00;70.80;;;;;;5005810;28;20046;-60
2021/04/07 08:23:31;;;;;;;8.27;4.57;;;3.60;69.70;;;;;;5014675;28;20450;-53
2021/04/07 08:25:59;;;;;;;10.00;3.70;;;3.40;70.30;;;;;;5009740;28;20485;-53
2021/04/07 08:28:25;;;;;;;10.95;4.55;;;3.40;70.70;;;;;;5010673;28;20128;-54
2021/04/07 08:30:50;;;;;;;11.77;3.80;;;3.30;70.60;;;;;;5009095;28;20032;-57
2021/04/07 08:33:20;;;;;;;7.97;3.83;;;3.30;69.50;;;;;;5013342;28;20464;-58
2021/04/07 08:35:47;;;;;;;8.35;3.88;;;3.20;69.00;;;;;;5013222;28;20611;-53
2021/04/07 08:38:13;;;;;;;11.98;3.92;;;3.20;69.80;;;;;;5012883;28;20069;-57
2021/04/07 08:40:42;;;;;;;7.35;3.38;;;3.30;70.20;;;;;;5012865;28;20050;-52
2021/04/07 08:43:11;;;;;;;15.65;5.10;;;3.30;70.20;;;;;;5013843;28;20026;-56
2021/04/07 08:45:47;;;;;;;9.60;3.40;;;3.40;69.90;;;;;;5021377;28;20046;-60
2021/04/07 08:48:29;;;;;;;14.32;3.58;;;3.50;69.80;;;;;;5011601;28;20041;-57
2021/04/07 08:51:06;;;;;;;8.70;3.63;;;3.60;67.60;;;;;;5021614;28;20045;-54
2021/04/07 08:53:34;;;;;;;11.25;4.15;;;3.70;66.70;;;;;;5022726;28;20092;-55
2021/04/07 08:56:06;;;;;;;7.30;3.85;;;3.40;66.80;;;;;;5015483;28;20485;-59
2021/04/07 08:58:32;;;;;;;10.57;3.70;;;3.50;67.80;;;;;;5018090;28;20042;-53
2021/04/07 09:00:58;;;;;;;9.15;4.72;;;3.50;68.90;;;;;;5018277;28;20061;-57
2021/04/07 09:03:25;;;;;;;24.42;5.35;;;3.60;69.00;;;;;;5018490;28;20072;-56
2021/04/07 09:05:52;;;;;;;7.32;4.32;;;3.60;66.90;;;;;;5015813;28;20034;-55
2021/04/07 09:08:25;;;;;;;9.45;5.20;;;3.60;66.80;;;;;;5014885;28;20038;-57
2021/04/07 09:10:53;;;;;;;9.18;4.68;;;3.60;66.90;;;;;;5015221;28;20448;-57
2021/04/07 09:13:23;;;;;;;18.35;5.50;;;3.80;67.80;;;;;;5014130;28;20061;-57
2021/04/07 09:15:55;;;;;;;10.73;5.22;;;4.00;67.50;;;;;;5015321;28;20028;-57
2021/04/07 09:18:44;;;;;;;13.40;5.85;;;3.90;67.10;;;;;;5006000;28;20529;-57
2021/04/07 09:21:16;;;;;;;18.35;7.40;;;3.80;67.20;;;;;;5014640;28;20032;-56
2021/04/07 09:23:48;;;;;;;8.90;4.50;;;3.90;67.00;;;;;;5014639;28;20037;-59
2021/04/07 09:26:17;;;;;;;9.25;5.03;;;4.00;65.40;;;;;;5015082;28;20033;-57
2021/04/07 09:28:45;;;;;;;8.50;5.43;;;4.20;65.10;;;;;;5014706;28;20038;-55
2021/04/07 09:31:14;;;;;;;11.65;5.57;;;4.10;65.30;;;;;;5015039;28;20087;-56
2021/04/07 09:33:42;;;;;;;11.82;5.70;;;4.20;64.80;;;;;;5017330;28;20109;-56
2021/04/07 09:36:09;;;;;;;10.50;5.30;;;4.20;65.30;;;;;;5015940;28;20038;-57
2021/04/07 09:38:38;;;;;;;9.25;5.05;;;4.10;65.10;;;;;;5026866;28;20029;-56
2021/04/07 09:41:08;;;;;;;10.90;5.00;;;4.00;65.00;;;;;;5000120;28;20038;-58
2021/04/07 09:43:34;;;;;;;12.05;5.45;;;4.10;64.70;;;;;;5015566;28;20037;-59
2021/04/07 09:46:00;;;;;;;10.25;5.43;;;4.20;63.50;;;;;;5015176;28;20105;-58
2021/04/07 09:49:02;;;;;;;16.13;6.85;;;4.40;63.40;;;;;;5017345;28;20129;-56
2021/04/07 09:51:35;;;;;;;11.55;5.78;;;4.10;64.30;;;;;;5023657;28;20034;-58
2021/04/07 09:54:19;;;;;;;7.20;5.03;;;4.20;65.30;;;;;;5015027;28;20052;-55
2021/04/07 09:56:54;;;;;;;12.50;5.38;;;4.40;64.70;;;;;;5013049;28;20022;-57
2021/04/07 09:59:48;;;;;;;10.07;4.95;;;4.20;63.60;;;;;;5014300;28;20519;-56
2021/04/07 10:02:27;;;;;;;7.93;5.47;;;4.30;64.00;;;;;;5019431;28;20439;-55
2021/04/07 10:04:54;;;;;;;8.95;4.35;;;4.30;64.90;;;;;;5024982;28;20029;-58
2021/04/07 10:07:22;;;;;;;7.70;4.15;;;4.60;63.80;;;;;;5016624;28;20050;-57
2021/04/07 10:09:52;;;;;;;10.10;4.93;;;4.60;61.60;;;;;;5013608;28;20088;-58
2021/04/07 10:12:20;;;;;;;11.32;5.05;;;4.60;62.60;;;;;;5013828;28;20076;-56
2021/04/07 10:14:47;;;;;;;11.15;5.03;;;4.80;63.10;;;;;;5013539;28;20618;-55
2021/04/07 10:17:20;;;;;;;8.15;4.88;;;4.70;62.30;;;;;;5013592;28;20038;-52
2021/04/07 10:19:47;;;;;;;8.05;4.35;;;4.70;62.40;;;;;;5010665;28;20026;-52
2021/04/07 10:22:17;;;;;;;6.38;4.03;;;4.90;62.60;;;;;;5013398;28;20033;-60
2021/04/07 10:24:46;;;;;;;10.90;4.65;;;4.80;62.30;;;;;;5013648;28;20030;-53
2021/04/07 10:27:22;;;;;;;9.13;4.28;;;4.70;62.50;;;;;;5013872;28;20029;-53
2021/04/07 10:29:49;;;;;;;11.48;5.53;;;4.70;62.60;;;;;;5011717;28;20053;-54
2021/04/07 10:32:19;;;;;;;5.35;3.90;;;4.70;63.00;;;;;;5013204;28;20385;-58
2021/04/07 10:34:46;;;;;;;7.53;4.40;;;4.90;62.80;;;;;;5013009;28;20133;-54
2021/04/07 10:37:13;;;;;;;9.00;4.60;;;5.00;63.00;;;;;;5010570;28;20406;-59
2021/04/07 10:39:43;;;;;;;9.48;4.43;;;5.10;62.70;;;;;;5013831;28;20044;-55
2021/04/07 10:42:19;;;;;;;9.18;5.07;;;5.20;62.00;;;;;;5013228;28;20041;-54
2021/04/07 10:44:55;;;;;;;7.18;4.82;;;5.10;62.20;;;;;;5012545;28;20033;-53
2021/04/07 10:47:22;;;;;;;7.55;5.10;;;5.10;62.90;;;;;;5013736;28;20030;-58
2021/04/07 10:49:56;;;;;;;7.80;5.10;;;5.20;63.00;;;;;;5012791;28;20128;-53
2021/04/07 10:52:42;;;;;;;8.20;4.90;;;5.10;62.90;;;;;;5013376;28;20345;-57
2021/04/07 10:55:19;;;;;;;7.05;4.55;;;5.20;62.80;;;;;;5012081;28;20091;-57
2021/04/07 10:57:47;;;;;;;9.40;4.82;;;5.30;62.90;;;;;;5012791;28;20030;-54
2021/04/07 11:00:27;;;;;;;7.30;4.38;;;5.20;62.90;;;;;;5012618;28;20389;-54
2021/04/07 11:02:53;;;;;;;7.28;4.30;;;5.10;62.30;;;;;;5011913;28;20037;-56
2021/04/07 11:05:21;;;;;;;7.88;5.15;;;5.30;62.20;;;;;;5013668;28;20022;-55
2021/04/07 11:07:48;;;;;;;8.65;4.80;;;5.40;62.30;;;;;;5012738;28;20033;-56
2021/04/07 11:10:16;;;;;;;12.27;4.97;;;5.40;62.50;;;;;;5012873;28;20030;-55
2021/04/07 11:12:43;;;;;;;10.18;4.85;;;5.50;62.50;;;;;;5020196;28;20029;-59
2021/04/07 11:15:13;;;;;;;7.88;4.22;;;5.50;63.00;;;;;;5016850;28;20041;-54
2021/04/07 11:17:49;;;;;;;8.43;5.00;;;5.50;62.40;;;;;;5015301;28;20026;-55
2021/04/07 11:20:15;;;;;;;8.50;4.50;;;5.30;62.60;;;;;;5015345;28;20030;-54
2021/04/07 11:22:40;;;;;;;7.07;3.97;;;5.20;62.30;;;;;;5012361;28;20440;-56
2021/04/07 11:25:06;;;;;;;7.28;4.68;;;5.40;62.60;;;;;;5013553;28;20045;-56
2021/04/07 11:27:36;;;;;;;6.70;4.32;;;5.30;62.50;;;;;;5012282;28;20030;-59
2021/04/07 11:30:06;;;;;;;7.75;4.85;;;5.20;62.50;;;;;;5008950;28;20049;-52
2021/04/07 11:32:35;;;;;;;6.18;3.85;;;5.20;63.00;;;;;;5011824;28;20038;-54
2021/04/07 11:35:16;;;;;;;8.45;4.15;;;5.10;62.90;;;;;;5024224;28;20413;-57
2021/04/07 11:40:20;;;;;;;5.80;3.83;;;5.10;63.50;;;;;;5019086;28;20034;-54
2021/04/07 11:43:00;;;;;;;11.60;4.93;;;5.40;63.60;;;;;;5028724;28;20021;-53
2021/04/07 11:45:25;;;;;;;5.70;3.50;;;5.50;64.00;;;;;;5025151;28;20030;-55
2021/04/07 11:47:51;;;;;;;8.35;4.18;;;5.60;61.90;;;;;;5021697;28;20036;-56
2021/04/07 11:50:16;;;;;;;7.30;3.95;;;5.50;63.10;;;;;;5017483;28;20056;-57
2021/04/07 11:52:42;;;;;;;5.18;3.67;;;5.60;63.40;;;;;;5017485;28;20045;-53
2021/04/07 11:55:08;;;;;;;7.82;4.13;;;5.60;63.60;;;;;;5025375;28;20026;-58
2021/04/07 11:57:34;;;;;;;4.35;3.40;;;5.60;63.10;;;;;;5012671;28;20495;-54
2021/04/07 11:59:59;;;;;;;11.20;5.32;;;5.40;63.80;;;;;;5016020;28;20050;-56
2021/04/07 12:02:25;;;;;;;7.13;3.92;;;5.50;63.60;;;;;;5029507;28;20100;-59
2021/04/07 12:04:52;;;;;;;10.85;4.70;;;5.60;63.60;;;;;;5012121;28;20053;-57
2021/04/07 12:07:18;;;;;;;6.43;4.00;;;5.70;63.50;;;;;;5010635;28;20021;-56
2021/04/07 12:09:44;;;;;;;7.78;3.60;;;5.60;62.80;;;;;;5027460;28;20030;-57
2021/04/07 12:12:10;;;;;;;5.72;3.85;;;5.50;63.60;;;;;;5020219;28;20043;-55
2021/04/07 12:14:36;;;;;;;5.05;3.72;;;5.70;63.60;;;;;;5032534;28;20037;-54
2021/04/07 12:17:06;;;;;;;5.95;4.15;;;5.70;62.50;;;;;;5017998;28;20538;-58
2021/04/07 12:19:39;;;;;;;5.55;3.78;;;5.70;62.20;;;;;;5033925;28;20048;-57
2021/04/07 12:22:05;;;;;;;5.28;3.92;;;5.60;63.10;;;;;;5009479;28;20076;-57
2021/04/07 12:24:30;;;;;;;5.63;3.88;;;5.70;63.90;;;;;;5026284;28;20121;-53
2021/04/07 12:26:59;;;;;;;6.47;4.00;;;5.80;64.10;;;;;;5026273;28;20069;-57
2021/04/07 12:29:24;;;;;;;8.13;4.10;;;5.90;63.60;;;;;;5033722;28;20056;-54
2021/04/07 12:31:50;;;;;;;7.97;4.53;;;5.90;63.80;;;;;;5022084;28;20038;-59
2021/04/07 12:34:16;;;;;;;9.75;4.57;;;5.80;65.20;;;;;;5036907;28;20030;-55
2021/04/07 12:36:42;;;;;;;6.75;4.28;;;5.80;65.40;;;;;;5025304;28;20034;-59
2021/04/07 12:39:08;;;;;;;7.63;4.20;;;5.50;65.90;;;;;;5035426;28;20103;-56
2021/04/07 12:41:48;;;;;;;6.95;4.40;;;5.60;66.50;;;;;;5019250;28;20045;-57
2021/04/07 12:44:14;;;;;;;7.60;4.45;;;5.60;65.90;;;;;;5033662;28;20029;-52
2021/04/07 12:46:40;;;;;;;6.78;4.75;;;5.60;67.00;;;;;;5027963;28;20121;-55
2021/04/07 12:49:08;;;;;;;7.85;4.40;;;5.60;67.30;;;;;;5035943;28;20029;-52
2021/04/07 12:51:34;;;;;;;5.95;4.45;;;5.70;67.30;;;;;;5012897;28;20026;-54
2021/04/07 12:53:59;;;;;;;6.25;5.10;;;5.60;67.40;;;;;;5024756;28;20033;-52
2021/04/07 12:56:27;;;;;;;5.82;4.35;;;5.40;67.20;;;;;;5007556;28;20041;-54
2021/04/07 12:58:53;;;;;;;6.75;5.00;;;5.30;68.10;;;;;;5025005;28;20038;-56
2021/04/07 13:01:18;;;;;;;6.75;5.15;;;5.30;69.10;;;;;;5031719;28;20041;-56